sensor_id;sensor_type;location;lat;lon;timestamp;P1;durP1;ratioP1;P2;durP2;ratioP2
70420;SDS011;57848;51.938;15.520;2024-03-07T00:00:42;42.28;;;19.52;;
70420;SDS011;57848;51.938;15.520;2024-03-07T00:03:08;41.70;;;20.52;;
70420;SDS011;57848;51.938;15.520;2024-03-07T00:05:33;40.70;;;19.40;;
70420;SDS011;57848;51.938;15.520;2024-03-07T00:07:59;38.17;;;19.57;;
70420;SDS011;57848;51.938;15.520;2024-03-07T00:10:24;39.80;;;18.60;;
70420;SDS011;57848;51.938;15.520;2024-03-07T00:12:50;45.10;;;20.47;;
70420;SDS011;57848;51.938;15.520;2024-03-07T00:15:15;43.47;;;22.20;;
70420;SDS011;57848;51.938;15.520;2024-03-07T00:17:41;42.47;;;20.60;;
70420;SDS011;57848;51.938;15.520;2024-03-07T00:20:07;43.95;;;20.90;;
70420;SDS011;57848;51.938;15.520;2024-03-07T00:22:44;50.50;;;22.60;;
70420;SDS011;57848;51.938;15.520;2024-03-07T00:25:09;43.95;;;21.23;;
70420;SDS011;57848;51.938;15.520;2024-03-07T00:27:36;40.80;;;21.40;;
70420;SDS011;57848;51.938;15.520;2024-03-07T00:30:05;49.70;;;21.30;;
70420;SDS011;57848;51.938;15.520;2024-03-07T00:32:33;42.55;;;20.92;;
70420;SDS011;57848;51.938;15.520;2024-03-07T00:35:01;46.63;;;20.13;;
70420;SDS011;57848;51.938;15.520;2024-03-07T00:37:30;42.50;;;19.75;;
70420;SDS011;57848;51.938;15.520;2024-03-07T00:39:56;43.03;;;19.37;;
70420;SDS011;57848;51.938;15.520;2024-03-07T00:42:21;44.63;;;18.98;;
70420;SDS011;57848;51.938;15.520;2024-03-07T00:44:47;37.43;;;18.83;;
70420;SDS011;57848;51.938;15.520;2024-03-07T00:47:14;39.47;;;19.33;;
70420;SDS011;57848;51.938;15.520;2024-03-07T00:49:40;45.50;;;21.08;;
70420;SDS011;57848;51.938;15.520;2024-03-07T00:52:05;37.83;;;18.93;;
70420;SDS011;57848;51.938;15.520;2024-03-07T00:54:31;39.60;;;20.50;;
70420;SDS011;57848;51.938;15.520;2024-03-07T00:56:56;41.57;;;19.70;;
70420;SDS011;57848;51.938;15.520;2024-03-07T00:59:22;33.85;;;17.52;;
70420;SDS011;57848;51.938;15.520;2024-03-07T01:01:47;35.60;;;18.23;;
70420;SDS011;57848;51.938;15.520;2024-03-07T01:04:14;42.00;;;18.23;;
70420;SDS011;57848;51.938;15.520;2024-03-07T01:06:39;42.47;;;19.77;;
70420;SDS011;57848;51.938;15.520;2024-03-07T01:09:06;44.72;;;21.02;;
70420;SDS011;57848;51.938;15.520;2024-03-07T01:11:39;38.92;;;19.35;;
70420;SDS011;57848;51.938;15.520;2024-03-07T01:14:08;42.58;;;19.67;;
70420;SDS011;57848;51.938;15.520;2024-03-07T01:16:33;35.30;;;17.10;;
70420;SDS011;57848;51.938;15.520;2024-03-07T01:19:00;39.08;;;18.48;;
70420;SDS011;57848;51.938;15.520;2024-03-07T01:21:25;37.90;;;17.10;;
70420;SDS011;57848;51.938;15.520;2024-03-07T01:23:51;39.38;;;18.13;;
70420;SDS011;57848;51.938;15.520;2024-03-07T01:26:16;38.47;;;18.23;;
70420;SDS011;57848;51.938;15.520;2024-03-07T01:28:42;42.33;;;23.63;;
70420;SDS011;57848;51.938;15.520;2024-03-07T01:31:08;42.70;;;22.27;;
70420;SDS011;57848;51.938;15.520;2024-03-07T01:33:33;37.60;;;20.87;;
70420;SDS011;57848;51.938;15.520;2024-03-07T01:35:59;40.17;;;19.42;;
70420;SDS011;57848;51.938;15.520;2024-03-07T01:38:24;46.50;;;18.90;;
70420;SDS011;57848;51.938;15.520;2024-03-07T01:40:50;36.97;;;19.02;;
70420;SDS011;57848;51.938;15.520;2024-03-07T01:43:15;37.47;;;18.57;;
70420;SDS011;57848;51.938;15.520;2024-03-07T01:45:41;38.40;;;18.00;;
70420;SDS011;57848;51.938;15.520;2024-03-07T01:48:08;36.40;;;15.87;;
70420;SDS011;57848;51.938;15.520;2024-03-07T01:50:35;37.05;;;16.27;;
70420;SDS011;57848;51.938;15.520;2024-03-07T01:53:09;36.63;;;15.73;;
70420;SDS011;57848;51.938;15.520;2024-03-07T01:55:36;32.78;;;15.73;;
70420;SDS011;57848;51.938;15.520;2024-03-07T01:58:02;33.13;;;15.03;;
70420;SDS011;57848;51.938;15.520;2024-03-07T02:00:30;30.50;;;14.63;;
70420;SDS011;57848;51.938;15.520;2024-03-07T02:02:56;30.00;;;13.70;;
70420;SDS011;57848;51.938;15.520;2024-03-07T02:05:21;32.40;;;15.43;;
70420;SDS011;57848;51.938;15.520;2024-03-07T02:07:47;34.47;;;16.52;;
70420;SDS011;57848;51.938;15.520;2024-03-07T02:10:13;30.03;;;15.53;;
70420;SDS011;57848;51.938;15.520;2024-03-07T02:12:38;30.47;;;13.40;;
70420;SDS011;57848;51.938;15.520;2024-03-07T02:15:04;29.70;;;13.73;;
70420;SDS011;57848;51.938;15.520;2024-03-07T02:17:29;31.27;;;15.03;;
70420;SDS011;57848;51.938;15.520;2024-03-07T02:19:55;30.35;;;13.23;;
70420;SDS011;57848;51.938;15.520;2024-03-07T02:22:20;27.87;;;13.10;;
70420;SDS011;57848;51.938;15.520;2024-03-07T02:24:46;27.23;;;14.33;;
70420;SDS011;57848;51.938;15.520;2024-03-07T02:27:12;29.05;;;14.45;;
70420;SDS011;57848;51.938;15.520;2024-03-07T02:29:39;39.15;;;15.02;;
70420;SDS011;57848;51.938;15.520;2024-03-07T02:32:05;35.77;;;14.63;;
70420;SDS011;57848;51.938;15.520;2024-03-07T02:34:31;29.00;;;13.20;;
70420;SDS011;57848;51.938;15.520;2024-03-07T02:36:56;27.83;;;13.77;;
70420;SDS011;57848;51.938;15.520;2024-03-07T02:39:22;29.30;;;14.83;;
70420;SDS011;57848;51.938;15.520;2024-03-07T02:41:47;32.83;;;16.60;;
70420;SDS011;57848;51.938;15.520;2024-03-07T02:44:13;35.45;;;15.90;;
70420;SDS011;57848;51.938;15.520;2024-03-07T02:46:39;35.30;;;14.68;;
70420;SDS011;57848;51.938;15.520;2024-03-07T02:49:05;32.20;;;17.07;;
70420;SDS011;57848;51.938;15.520;2024-03-07T02:51:30;31.83;;;16.47;;
70420;SDS011;57848;51.938;15.520;2024-03-07T02:53:56;33.45;;;14.80;;
70420;SDS011;57848;51.938;15.520;2024-03-07T02:56:23;34.13;;;14.38;;
70420;SDS011;57848;51.938;15.520;2024-03-07T02:58:48;29.57;;;14.60;;
70420;SDS011;57848;51.938;15.520;2024-03-07T03:01:14;33.03;;;14.35;;
70420;SDS011;57848;51.938;15.520;2024-03-07T03:03:39;32.00;;;13.43;;
70420;SDS011;57848;51.938;15.520;2024-03-07T03:06:07;30.05;;;13.82;;
70420;SDS011;57848;51.938;15.520;2024-03-07T03:08:33;27.63;;;13.60;;
70420;SDS011;57848;51.938;15.520;2024-03-07T03:11:00;33.95;;;17.00;;
70420;SDS011;57848;51.938;15.520;2024-03-07T03:13:25;32.17;;;16.97;;
70420;SDS011;57848;51.938;15.520;2024-03-07T03:15:54;32.90;;;16.50;;
70420;SDS011;57848;51.938;15.520;2024-03-07T03:18:23;31.38;;;15.90;;
70420;SDS011;57848;51.938;15.520;2024-03-07T03:20:51;33.50;;;15.30;;
70420;SDS011;57848;51.938;15.520;2024-03-07T03:23:18;31.38;;;15.27;;
70420;SDS011;57848;51.938;15.520;2024-03-07T03:25:44;30.67;;;16.00;;
70420;SDS011;57848;51.938;15.520;2024-03-07T03:28:10;28.75;;;13.93;;
70420;SDS011;57848;51.938;15.520;2024-03-07T03:30:39;33.07;;;14.70;;
70420;SDS011;57848;51.938;15.520;2024-03-07T03:33:08;34.97;;;14.50;;
70420;SDS011;57848;51.938;15.520;2024-03-07T03:35:35;29.92;;;13.77;;
70420;SDS011;57848;51.938;15.520;2024-03-07T03:38:01;31.02;;;13.63;;
70420;SDS011;57848;51.938;15.520;2024-03-07T03:40:26;36.43;;;14.93;;
70420;SDS011;57848;51.938;15.520;2024-03-07T03:42:52;27.33;;;14.15;;
70420;SDS011;57848;51.938;15.520;2024-03-07T03:45:18;34.23;;;15.70;;
70420;SDS011;57848;51.938;15.520;2024-03-07T03:47:44;35.55;;;17.35;;
70420;SDS011;57848;51.938;15.520;2024-03-07T03:50:10;32.63;;;15.90;;
70420;SDS011;57848;51.938;15.520;2024-03-07T03:52:38;32.33;;;16.25;;
70420;SDS011;57848;51.938;15.520;2024-03-07T03:55:04;32.60;;;18.00;;
70420;SDS011;57848;51.938;15.520;2024-03-07T03:57:43;37.22;;;19.75;;
70420;SDS011;57848;51.938;15.520;2024-03-07T04:00:10;34.25;;;16.25;;
70420;SDS011;57848;51.938;15.520;2024-03-07T04:02:42;34.60;;;15.93;;
70420;SDS011;57848;51.938;15.520;2024-03-07T04:05:10;33.10;;;15.27;;
70420;SDS011;57848;51.938;15.520;2024-03-07T04:07:39;31.23;;;15.15;;
70420;SDS011;57848;51.938;15.520;2024-03-07T04:10:05;33.95;;;13.93;;
70420;SDS011;57848;51.938;15.520;2024-03-07T04:12:34;33.78;;;16.67;;
70420;SDS011;57848;51.938;15.520;2024-03-07T04:15:07;33.27;;;15.27;;
70420;SDS011;57848;51.938;15.520;2024-03-07T04:17:34;34.50;;;16.98;;
70420;SDS011;57848;51.938;15.520;2024-03-07T04:20:01;34.33;;;16.30;;
70420;SDS011;57848;51.938;15.520;2024-03-07T04:22:30;34.25;;;15.60;;
70420;SDS011;57848;51.938;15.520;2024-03-07T04:24:56;34.45;;;16.92;;
70420;SDS011;57848;51.938;15.520;2024-03-07T04:27:22;30.43;;;15.33;;
70420;SDS011;57848;51.938;15.520;2024-03-07T04:29:47;33.50;;;15.67;;
70420;SDS011;57848;51.938;15.520;2024-03-07T04:32:13;35.83;;;15.37;;
70420;SDS011;57848;51.938;15.520;2024-03-07T04:34:38;33.55;;;15.02;;
70420;SDS011;57848;51.938;15.520;2024-03-07T04:37:04;28.03;;;13.80;;
70420;SDS011;57848;51.938;15.520;2024-03-07T04:39:30;38.45;;;14.48;;
70420;SDS011;57848;51.938;15.520;2024-03-07T04:42:03;30.88;;;14.38;;
70420;SDS011;57848;51.938;15.520;2024-03-07T04:44:31;32.03;;;14.77;;
70420;SDS011;57848;51.938;15.520;2024-03-07T04:46:58;35.85;;;15.10;;
70420;SDS011;57848;51.938;15.520;2024-03-07T04:49:25;33.53;;;15.82;;
70420;SDS011;57848;51.938;15.520;2024-03-07T04:51:52;32.65;;;15.98;;
70420;SDS011;57848;51.938;15.520;2024-03-07T04:54:18;33.85;;;15.73;;
70420;SDS011;57848;51.938;15.520;2024-03-07T04:56:46;36.07;;;17.83;;
70420;SDS011;57848;51.938;15.520;2024-03-07T04:59:13;30.73;;;15.90;;
70420;SDS011;57848;51.938;15.520;2024-03-07T05:01:40;42.92;;;15.98;;
70420;SDS011;57848;51.938;15.520;2024-03-07T05:04:06;30.35;;;14.73;;
70420;SDS011;57848;51.938;15.520;2024-03-07T05:06:32;28.02;;;14.48;;
70420;SDS011;57848;51.938;15.520;2024-03-07T05:09:02;33.37;;;15.63;;
70420;SDS011;57848;51.938;15.520;2024-03-07T05:11:29;35.40;;;15.27;;
70420;SDS011;57848;51.938;15.520;2024-03-07T05:13:55;24.90;;;12.35;;
70420;SDS011;57848;51.938;15.520;2024-03-07T05:16:20;29.17;;;13.03;;
70420;SDS011;57848;51.938;15.520;2024-03-07T05:18:46;27.90;;;12.53;;
70420;SDS011;57848;51.938;15.520;2024-03-07T05:21:12;32.78;;;14.93;;
70420;SDS011;57848;51.938;15.520;2024-03-07T05:23:55;28.70;;;13.57;;
70420;SDS011;57848;51.938;15.520;2024-03-07T05:26:21;28.53;;;13.83;;
70420;SDS011;57848;51.938;15.520;2024-03-07T05:28:46;28.20;;;15.20;;
70420;SDS011;57848;51.938;15.520;2024-03-07T05:31:12;33.50;;;13.93;;
70420;SDS011;57848;51.938;15.520;2024-03-07T05:33:38;31.83;;;16.02;;
70420;SDS011;57848;51.938;15.520;2024-03-07T05:36:05;33.27;;;15.60;;
70420;SDS011;57848;51.938;15.520;2024-03-07T05:38:41;32.13;;;15.68;;
70420;SDS011;57848;51.938;15.520;2024-03-07T05:41:12;33.20;;;17.00;;
70420;SDS011;57848;51.938;15.520;2024-03-07T05:43:38;32.08;;;14.88;;
70420;SDS011;57848;51.938;15.520;2024-03-07T05:46:05;28.75;;;14.13;;
70420;SDS011;57848;51.938;15.520;2024-03-07T05:48:32;28.00;;;13.13;;
70420;SDS011;57848;51.938;15.520;2024-03-07T05:50:58;28.88;;;12.68;;
70420;SDS011;57848;51.938;15.520;2024-03-07T05:53:24;29.55;;;13.40;;
70420;SDS011;57848;51.938;15.520;2024-03-07T05:55:49;35.85;;;15.30;;
70420;SDS011;57848;51.938;15.520;2024-03-07T05:58:15;33.57;;;16.37;;
70420;SDS011;57848;51.938;15.520;2024-03-07T06:00:44;31.08;;;14.35;;
70420;SDS011;57848;51.938;15.520;2024-03-07T06:03:14;30.23;;;15.88;;
70420;SDS011;57848;51.938;15.520;2024-03-07T06:05:45;30.70;;;16.07;;
70420;SDS011;57848;51.938;15.520;2024-03-07T06:08:13;30.38;;;14.98;;
70420;SDS011;57848;51.938;15.520;2024-03-07T06:10:42;32.97;;;15.75;;
70420;SDS011;57848;51.938;15.520;2024-03-07T06:13:07;30.25;;;14.23;;
70420;SDS011;57848;51.938;15.520;2024-03-07T06:15:33;34.73;;;14.73;;
70420;SDS011;57848;51.938;15.520;2024-03-07T06:17:59;30.25;;;13.77;;
70420;SDS011;57848;51.938;15.520;2024-03-07T06:20:25;27.80;;;13.27;;
70420;SDS011;57848;51.938;15.520;2024-03-07T06:22:53;27.20;;;13.47;;
70420;SDS011;57848;51.938;15.520;2024-03-07T06:25:19;33.08;;;12.95;;
70420;SDS011;57848;51.938;15.520;2024-03-07T06:27:48;34.90;;;14.15;;
70420;SDS011;57848;51.938;15.520;2024-03-07T06:30:17;58.80;;;28.45;;
70420;SDS011;57848;51.938;15.520;2024-03-07T06:32:43;37.13;;;18.67;;
70420;SDS011;57848;51.938;15.520;2024-03-07T06:35:09;33.65;;;17.05;;
70420;SDS011;57848;51.938;15.520;2024-03-07T06:37:35;39.28;;;19.00;;
70420;SDS011;57848;51.938;15.520;2024-03-07T06:40:01;32.70;;;15.93;;
70420;SDS011;57848;51.938;15.520;2024-03-07T06:42:30;33.17;;;15.13;;
70420;SDS011;57848;51.938;15.520;2024-03-07T06:44:58;35.72;;;17.50;;
70420;SDS011;57848;51.938;15.520;2024-03-07T06:47:23;31.53;;;15.07;;
70420;SDS011;57848;51.938;15.520;2024-03-07T06:49:49;30.20;;;12.80;;
70420;SDS011;57848;51.938;15.520;2024-03-07T06:52:17;29.80;;;14.07;;
70420;SDS011;57848;51.938;15.520;2024-03-07T06:54:43;28.33;;;13.52;;
70420;SDS011;57848;51.938;15.520;2024-03-07T06:57:08;28.00;;;13.60;;
70420;SDS011;57848;51.938;15.520;2024-03-07T06:59:34;31.43;;;13.57;;
70420;SDS011;57848;51.938;15.520;2024-03-07T07:02:01;32.65;;;14.27;;
70420;SDS011;57848;51.938;15.520;2024-03-07T07:04:28;29.48;;;13.77;;
70420;SDS011;57848;51.938;15.520;2024-03-07T07:07:06;28.97;;;14.10;;
70420;SDS011;57848;51.938;15.520;2024-03-07T07:09:32;30.67;;;14.30;;
70420;SDS011;57848;51.938;15.520;2024-03-07T07:11:58;28.80;;;13.63;;
70420;SDS011;57848;51.938;15.520;2024-03-07T07:14:23;26.60;;;14.13;;
70420;SDS011;57848;51.938;15.520;2024-03-07T07:16:48;29.90;;;14.60;;
70420;SDS011;57848;51.938;15.520;2024-03-07T07:19:14;30.83;;;13.07;;
70420;SDS011;57848;51.938;15.520;2024-03-07T07:21:39;31.30;;;14.57;;
70420;SDS011;57848;51.938;15.520;2024-03-07T07:24:06;29.15;;;13.77;;
70420;SDS011;57848;51.938;15.520;2024-03-07T07:26:31;29.40;;;14.20;;
70420;SDS011;57848;51.938;15.520;2024-03-07T07:28:57;28.42;;;13.20;;
70420;SDS011;57848;51.938;15.520;2024-03-07T07:31:23;28.27;;;12.83;;
70420;SDS011;57848;51.938;15.520;2024-03-07T07:33:49;31.60;;;14.82;;
70420;SDS011;57848;51.938;15.520;2024-03-07T07:36:15;32.33;;;15.23;;
70420;SDS011;57848;51.938;15.520;2024-03-07T07:38:40;32.17;;;15.67;;
70420;SDS011;57848;51.938;15.520;2024-03-07T07:41:06;30.08;;;15.38;;
70420;SDS011;57848;51.938;15.520;2024-03-07T07:43:32;29.47;;;14.23;;
70420;SDS011;57848;51.938;15.520;2024-03-07T07:45:57;28.47;;;14.07;;
70420;SDS011;57848;51.938;15.520;2024-03-07T07:48:22;32.83;;;14.77;;
70420;SDS011;57848;51.938;15.520;2024-03-07T07:50:48;34.53;;;14.70;;
70420;SDS011;57848;51.938;15.520;2024-03-07T07:53:15;28.70;;;14.33;;
70420;SDS011;57848;51.938;15.520;2024-03-07T07:55:41;29.85;;;13.13;;
70420;SDS011;57848;51.938;15.520;2024-03-07T07:58:07;29.63;;;13.53;;
70420;SDS011;57848;51.938;15.520;2024-03-07T08:00:32;31.58;;;15.27;;
70420;SDS011;57848;51.938;15.520;2024-03-07T08:03:04;34.37;;;14.70;;
70420;SDS011;57848;51.938;15.520;2024-03-07T08:05:34;30.00;;;14.73;;
70420;SDS011;57848;51.938;15.520;2024-03-07T08:08:02;33.97;;;16.02;;
70420;SDS011;57848;51.938;15.520;2024-03-07T08:10:30;32.75;;;16.10;;
70420;SDS011;57848;51.938;15.520;2024-03-07T08:12:57;28.70;;;14.88;;
70420;SDS011;57848;51.938;15.520;2024-03-07T08:15:25;28.77;;;14.20;;
70420;SDS011;57848;51.938;15.520;2024-03-07T08:17:53;28.88;;;14.57;;
70420;SDS011;57848;51.938;15.520;2024-03-07T08:20:20;27.65;;;13.40;;
70420;SDS011;57848;51.938;15.520;2024-03-07T08:22:47;29.95;;;14.75;;
70420;SDS011;57848;51.938;15.520;2024-03-07T08:25:16;30.65;;;13.68;;
70420;SDS011;57848;51.938;15.520;2024-03-07T08:27:44;32.07;;;15.53;;
70420;SDS011;57848;51.938;15.520;2024-03-07T08:30:13;33.72;;;14.73;;
70420;SDS011;57848;51.938;15.520;2024-03-07T08:32:43;30.98;;;14.18;;
70420;SDS011;57848;51.938;15.520;2024-03-07T08:35:09;31.83;;;16.13;;
70420;SDS011;57848;51.938;15.520;2024-03-07T08:37:36;35.10;;;14.60;;
70420;SDS011;57848;51.938;15.520;2024-03-07T08:40:02;35.47;;;14.13;;
70420;SDS011;57848;51.938;15.520;2024-03-07T08:42:38;33.90;;;14.52;;
70420;SDS011;57848;51.938;15.520;2024-03-07T08:45:06;29.35;;;14.48;;
70420;SDS011;57848;51.938;15.520;2024-03-07T08:47:35;32.20;;;15.05;;
70420;SDS011;57848;51.938;15.520;2024-03-07T08:50:02;29.85;;;15.73;;
70420;SDS011;57848;51.938;15.520;2024-03-07T08:52:31;34.77;;;15.57;;
70420;SDS011;57848;51.938;15.520;2024-03-07T08:54:57;34.15;;;15.45;;
70420;SDS011;57848;51.938;15.520;2024-03-07T08:57:23;31.02;;;14.77;;
70420;SDS011;57848;51.938;15.520;2024-03-07T08:59:48;31.77;;;15.20;;
70420;SDS011;57848;51.938;15.520;2024-03-07T09:02:14;34.92;;;15.27;;
70420;SDS011;57848;51.938;15.520;2024-03-07T09:04:40;33.58;;;14.80;;
70420;SDS011;57848;51.938;15.520;2024-03-07T09:07:06;35.17;;;16.13;;
70420;SDS011;57848;51.938;15.520;2024-03-07T09:09:32;32.17;;;14.73;;
70420;SDS011;57848;51.938;15.520;2024-03-07T09:11:58;31.30;;;14.57;;
70420;SDS011;57848;51.938;15.520;2024-03-07T09:14:26;30.20;;;14.90;;
70420;SDS011;57848;51.938;15.520;2024-03-07T09:16:51;33.77;;;15.70;;
70420;SDS011;57848;51.938;15.520;2024-03-07T09:19:17;32.65;;;14.70;;
70420;SDS011;57848;51.938;15.520;2024-03-07T09:21:48;30.02;;;14.15;;
70420;SDS011;57848;51.938;15.520;2024-03-07T09:24:15;29.20;;;14.07;;
70420;SDS011;57848;51.938;15.520;2024-03-07T09:26:41;33.42;;;15.32;;
70420;SDS011;57848;51.938;15.520;2024-03-07T09:29:06;28.63;;;12.57;;
70420;SDS011;57848;51.938;15.520;2024-03-07T09:31:32;30.35;;;13.32;;
70420;SDS011;57848;51.938;15.520;2024-03-07T09:33:58;30.67;;;13.63;;
70420;SDS011;57848;51.938;15.520;2024-03-07T09:36:24;33.45;;;16.00;;
70420;SDS011;57848;51.938;15.520;2024-03-07T09:38:49;29.60;;;14.67;;
70420;SDS011;57848;51.938;15.520;2024-03-07T09:41:15;30.15;;;14.98;;
70420;SDS011;57848;51.938;15.520;2024-03-07T09:43:42;34.57;;;15.13;;
70420;SDS011;57848;51.938;15.520;2024-03-07T09:46:09;30.95;;;15.63;;
70420;SDS011;57848;51.938;15.520;2024-03-07T09:48:35;29.30;;;14.05;;
70420;SDS011;57848;51.938;15.520;2024-03-07T09:51:00;29.40;;;13.67;;
70420;SDS011;57848;51.938;15.520;2024-03-07T09:53:29;29.38;;;13.45;;
70420;SDS011;57848;51.938;15.520;2024-03-07T09:55:55;28.98;;;13.63;;
70420;SDS011;57848;51.938;15.520;2024-03-07T09:58:22;29.98;;;15.23;;
70420;SDS011;57848;51.938;15.520;2024-03-07T10:00:50;31.33;;;12.87;;
70420;SDS011;57848;51.938;15.520;2024-03-07T10:03:20;25.77;;;11.93;;
70420;SDS011;57848;51.938;15.520;2024-03-07T10:05:48;26.88;;;13.60;;
70420;SDS011;57848;51.938;15.520;2024-03-07T10:08:15;25.63;;;12.83;;
70420;SDS011;57848;51.938;15.520;2024-03-07T10:10:43;27.50;;;13.70;;
70420;SDS011;57848;51.938;15.520;2024-03-07T10:13:09;28.50;;;11.93;;
70420;SDS011;57848;51.938;15.520;2024-03-07T10:15:35;26.43;;;13.70;;
70420;SDS011;57848;51.938;15.520;2024-03-07T10:18:00;24.53;;;12.40;;
70420;SDS011;57848;51.938;15.520;2024-03-07T10:20:26;23.17;;;12.00;;
70420;SDS011;57848;51.938;15.520;2024-03-07T10:22:52;29.85;;;13.05;;
70420;SDS011;57848;51.938;15.520;2024-03-07T10:25:18;26.10;;;12.70;;
70420;SDS011;57848;51.938;15.520;2024-03-07T10:27:47;25.58;;;12.98;;
70420;SDS011;57848;51.938;15.520;2024-03-07T10:30:15;25.67;;;12.85;;
70420;SDS011;57848;51.938;15.520;2024-03-07T10:32:45;28.17;;;12.90;;
70420;SDS011;57848;51.938;15.520;2024-03-07T10:35:11;27.80;;;13.95;;
70420;SDS011;57848;51.938;15.520;2024-03-07T10:37:39;25.25;;;13.95;;
70420;SDS011;57848;51.938;15.520;2024-03-07T10:40:05;24.38;;;13.10;;
70420;SDS011;57848;51.938;15.520;2024-03-07T10:42:41;24.80;;;13.05;;
70420;SDS011;57848;51.938;15.520;2024-03-07T10:45:11;22.87;;;11.90;;
70420;SDS011;57848;51.938;15.520;2024-03-07T10:47:42;20.83;;;12.82;;
70420;SDS011;57848;51.938;15.520;2024-03-07T10:50:24;25.55;;;12.05;;
70420;SDS011;57848;51.938;15.520;2024-03-07T10:53:31;19.95;;;11.75;;
70420;SDS011;57848;51.938;15.520;2024-03-07T10:56:17;22.45;;;12.05;;
70420;SDS011;57848;51.938;15.520;2024-03-07T10:59:05;19.37;;;10.63;;
70420;SDS011;57848;51.938;15.520;2024-03-07T11:01:39;19.73;;;11.10;;
70420;SDS011;57848;51.938;15.520;2024-03-07T11:04:14;21.45;;;12.07;;
70420;SDS011;57848;51.938;15.520;2024-03-07T11:06:41;26.02;;;12.40;;
70420;SDS011;57848;51.938;15.520;2024-03-07T11:09:06;22.03;;;11.30;;
70420;SDS011;57848;51.938;15.520;2024-03-07T11:11:38;25.70;;;11.57;;
70420;SDS011;57848;51.938;15.520;2024-03-07T11:14:08;25.83;;;11.60;;
70420;SDS011;57848;51.938;15.520;2024-03-07T11:16:36;21.45;;;12.20;;
70420;SDS011;57848;51.938;15.520;2024-03-07T11:19:20;22.90;;;12.33;;
70420;SDS011;57848;51.938;15.520;2024-03-07T11:22:01;22.60;;;12.43;;
70420;SDS011;57848;51.938;15.520;2024-03-07T11:24:30;22.75;;;11.20;;
70420;SDS011;57848;51.938;15.520;2024-03-07T11:26:58;19.17;;;10.15;;
70420;SDS011;57848;51.938;15.520;2024-03-07T11:32:08;20.40;;;12.03;;
70420;SDS011;57848;51.938;15.520;2024-03-07T11:34:37;19.35;;;11.02;;
70420;SDS011;57848;51.938;15.520;2024-03-07T11:37:04;20.77;;;11.13;;
70420;SDS011;57848;51.938;15.520;2024-03-07T11:39:38;20.63;;;11.05;;
70420;SDS011;57848;51.938;15.520;2024-03-07T11:42:23;22.45;;;11.23;;
70420;SDS011;57848;51.938;15.520;2024-03-07T11:44:50;19.70;;;12.17;;
70420;SDS011;57848;51.938;15.520;2024-03-07T11:47:16;22.95;;;13.10;;
70420;SDS011;57848;51.938;15.520;2024-03-07T11:49:43;22.17;;;11.63;;
70420;SDS011;57848;51.938;15.520;2024-03-07T11:52:08;20.67;;;11.33;;
70420;SDS011;57848;51.938;15.520;2024-03-07T11:54:41;19.05;;;11.18;;
70420;SDS011;57848;51.938;15.520;2024-03-07T11:57:11;21.30;;;11.40;;
70420;SDS011;57848;51.938;15.520;2024-03-07T11:59:41;20.55;;;11.63;;
70420;SDS011;57848;51.938;15.520;2024-03-07T12:02:13;22.17;;;11.70;;
70420;SDS011;57848;51.938;15.520;2024-03-07T12:04:46;22.35;;;12.10;;
70420;SDS011;57848;51.938;15.520;2024-03-07T12:07:18;22.15;;;12.10;;
70420;SDS011;57848;51.938;15.520;2024-03-07T12:09:44;20.95;;;11.23;;
70420;SDS011;57848;51.938;15.520;2024-03-07T12:12:16;19.00;;;11.93;;
70420;SDS011;57848;51.938;15.520;2024-03-07T12:14:42;19.70;;;10.60;;
70420;SDS011;57848;51.938;15.520;2024-03-07T12:17:08;19.27;;;10.82;;
70420;SDS011;57848;51.938;15.520;2024-03-07T12:19:34;17.70;;;10.55;;
70420;SDS011;57848;51.938;15.520;2024-03-07T12:22:03;22.65;;;12.18;;
70420;SDS011;57848;51.938;15.520;2024-03-07T12:24:37;19.30;;;11.52;;
70420;SDS011;57848;51.938;15.520;2024-03-07T12:27:12;20.63;;;11.70;;
70420;SDS011;57848;51.938;15.520;2024-03-07T12:29:40;19.90;;;11.20;;
70420;SDS011;57848;51.938;15.520;2024-03-07T12:32:13;23.48;;;10.57;;
70420;SDS011;57848;51.938;15.520;2024-03-07T12:34:39;18.60;;;10.60;;
70420;SDS011;57848;51.938;15.520;2024-03-07T12:37:10;19.42;;;10.55;;
70420;SDS011;57848;51.938;15.520;2024-03-07T12:39:36;19.58;;;10.23;;
70420;SDS011;57848;51.938;15.520;2024-03-07T12:42:11;17.50;;;9.57;;
70420;SDS011;57848;51.938;15.520;2024-03-07T12:44:40;18.55;;;9.82;;
70420;SDS011;57848;51.938;15.520;2024-03-07T12:47:08;18.30;;;10.03;;
70420;SDS011;57848;51.938;15.520;2024-03-07T12:49:35;17.35;;;9.43;;
70420;SDS011;57848;51.938;15.520;2024-03-07T12:52:00;18.53;;;10.43;;
70420;SDS011;57848;51.938;15.520;2024-03-07T12:54:26;18.77;;;9.27;;
70420;SDS011;57848;51.938;15.520;2024-03-07T12:56:52;18.70;;;9.43;;
70420;SDS011;57848;51.938;15.520;2024-03-07T12:59:17;20.47;;;9.63;;
70420;SDS011;57848;51.938;15.520;2024-03-07T13:01:44;17.88;;;9.40;;
70420;SDS011;57848;51.938;15.520;2024-03-07T13:04:12;17.55;;;9.68;;
70420;SDS011;57848;51.938;15.520;2024-03-07T13:06:39;18.60;;;9.73;;
70420;SDS011;57848;51.938;15.520;2024-03-07T13:09:08;17.77;;;9.30;;
70420;SDS011;57848;51.938;15.520;2024-03-07T13:11:39;18.60;;;9.23;;
70420;SDS011;57848;51.938;15.520;2024-03-07T13:14:12;16.90;;;9.43;;
70420;SDS011;57848;51.938;15.520;2024-03-07T13:16:38;19.90;;;8.63;;
70420;SDS011;57848;51.938;15.520;2024-03-07T13:19:04;16.17;;;8.27;;
70420;SDS011;57848;51.938;15.520;2024-03-07T13:21:33;17.93;;;8.73;;
70420;SDS011;57848;51.938;15.520;2024-03-07T13:24:00;17.13;;;8.40;;
70420;SDS011;57848;51.938;15.520;2024-03-07T13:26:26;17.45;;;9.13;;
70420;SDS011;57848;51.938;15.520;2024-03-07T13:28:55;19.40;;;8.93;;
70420;SDS011;57848;51.938;15.520;2024-03-07T13:31:21;16.57;;;8.50;;
70420;SDS011;57848;51.938;15.520;2024-03-07T13:33:47;16.65;;;8.38;;
70420;SDS011;57848;51.938;15.520;2024-03-07T13:36:16;16.48;;;8.25;;
70420;SDS011;57848;51.938;15.520;2024-03-07T13:38:48;17.55;;;8.07;;
70420;SDS011;57848;51.938;15.520;2024-03-07T13:41:17;17.23;;;8.23;;
70420;SDS011;57848;51.938;15.520;2024-03-07T13:43:44;19.67;;;8.13;;
70420;SDS011;57848;51.938;15.520;2024-03-07T13:46:09;17.63;;;8.60;;
70420;SDS011;57848;51.938;15.520;2024-03-07T13:48:37;18.37;;;8.67;;
70420;SDS011;57848;51.938;15.520;2024-03-07T13:51:02;16.92;;;8.23;;
70420;SDS011;57848;51.938;15.520;2024-03-07T13:53:33;17.30;;;9.10;;
70420;SDS011;57848;51.938;15.520;2024-03-07T14:10:23;16.80;;;7.80;;
70420;SDS011;57848;51.938;15.520;2024-03-07T14:16:31;19.05;;;8.55;;
70420;SDS011;57848;51.938;15.520;2024-03-07T14:22:07;17.85;;;8.40;;
70420;SDS011;57848;51.938;15.520;2024-03-07T14:27:31;19.63;;;8.60;;
70420;SDS011;57848;51.938;15.520;2024-03-07T14:33:05;16.70;;;7.95;;
70420;SDS011;57848;51.938;15.520;2024-03-07T14:38:25;17.55;;;7.57;;
70420;SDS011;57848;51.938;15.520;2024-03-07T14:40:53;17.63;;;8.20;;
70420;SDS011;57848;51.938;15.520;2024-03-07T14:43:20;17.00;;;8.43;;
70420;SDS011;57848;51.938;15.520;2024-03-07T14:45:46;16.48;;;8.18;;